Terminal Aerodrome Forecast
Issued by NWS

Current Version | Previous Version | Graphics & Text | Print | Product List | Glossary On
Versions: 1 2 3 4 5 6 7 8 9 10 11 12 13 14 15 16 17 18 19 20 21 22 23 24 25 26 27 28 29
306
FTUS41 KILN 281720
TAFLUK
TAF
KLUK 281720Z 2818/2918 17008KT 5SM -SHRA BR VCTS OVC070CB
      TEMPO 2818/2821 3SM TSRA BR
     FM282100 20008KT P6SM VCTS OVC050CB
      TEMPO 2821/2901 3SM TSRA BR
     FM290100 31004KT P6SM BKN035
     FM290400 00000KT 4SM BR BKN018
     FM290800 00000KT 2SM BR OVC008
      TEMPO 2908/2912 1/2SM FG
     FM291500 02004KT 4SM BR OVC015=

USA.gov is the U.S. government's official web portal to all federal, state and local government web resources and services.